Time;durP1;ratioP1;P1;durP2;ratioP2;P2;SDS_P1;SDS_P2;PMS_P1;PMS_P2;Temp;Humidity;BMP_temperature;BMP_pressure;BME280_temperature;BME280_humidity;BME280_pressure;Samples;Min_cycle;Max_cycle;Signal;HPM_P1;HPM_P2
2022/01/26 00:05:44;;;;;;;0.00;0.00;;;;;;;;;;5070084;28;20389;-63
2022/01/26 00:06:27;;;;;;;1.40;1.40;;;;;;;;;;5067972;28;20625;-62
2022/01/26 00:08:53;;;;;;;2.08;0.65;;;;;;;;;;5032792;28;1114338;-62
2022/01/26 00:11:18;;;;;;;0.00;0.00;;;;;;;;;;5072639;28;20647;-62
2022/01/26 00:13:43;;;;;;;0.00;0.00;;;;;;;;;;5071828;28;20024;-63
2022/01/26 00:16:16;;;;;;;2.85;2.75;;;;;;;;;;5071706;28;20024;-63
2022/01/26 00:18:41;;;;;;;0.22;0.22;;;;;;;;;;5068654;28;20082;-63
2022/01/26 00:21:14;;;;;;;0.05;0.05;;;;;;;;;;5071738;28;20016;-63
2022/01/26 00:26:30;;;;;;;3.40;3.20;;;;;;;;;;5070752;28;20031;-62
2022/01/26 00:39:43;;;;;;;0.00;0.00;;;;;;;;;;5072038;28;20036;-63
2022/01/26 00:42:08;;;;;;;0.13;0.13;;;;;;;;;;5070435;28;20484;-63
2022/01/26 00:44:41;;;;;;;0.00;0.00;;;;;;;;;;5071493;28;20078;-64
2022/01/26 00:47:06;;;;;;;0.00;0.00;;;;;;;;;;5069079;28;20048;-62
2022/01/26 00:49:31;;;;;;;0.82;0.82;;;;;;;;;;5071022;28;20048;-62
2022/01/26 00:51:56;;;;;;;0.00;0.00;;;;;;;;;;5071387;28;20377;-63
2022/01/26 00:54:22;;;;;;;0.00;0.00;;;;;;;;;;5070057;28;20050;-63
2022/01/26 00:56:47;;;;;;;2.55;1.45;;;;;;;;;;5069932;28;20022;-63
2022/01/26 00:59:13;;;;;;;1.08;1.08;;;;;;;;;;5070299;28;20063;-63
2022/01/26 01:01:38;;;;;;;0.00;0.00;;;;;;;;;;5071242;28;20028;-64
2022/01/26 01:04:03;;;;;;;0.00;0.00;;;;;;;;;;5071039;28;20024;-64
2022/01/26 01:06:35;;;;;;;2.53;2.50;;;;;;;;;;5070076;28;20489;-63
2022/01/26 01:09:01;;;;;;;0.00;0.00;;;;;;;;;;5071609;28;20094;-64
2022/01/26 01:11:26;;;;;;;3.28;3.10;;;;;;;;;;5071091;28;20428;-64
2022/01/26 01:13:52;;;;;;;5.70;1.45;;;;;;;;;;5071368;28;20044;-64
2022/01/26 01:16:18;;;;;;;0.00;0.00;;;;;;;;;;5069420;28;20078;-64
2022/01/26 01:26:57;;;;;;;0.90;0.90;;;;;;;;;;5070968;28;20032;-64
2022/01/26 01:29:21;;;;;;;0.03;0.03;;;;;;;;;;5070128;28;20036;-64
2022/01/26 01:31:51;;;;;;;0.00;0.00;;;;;;;;;;5069411;28;20024;-63
2022/01/26 01:34:18;;;;;;;0.00;0.00;;;;;;;;;;5069960;28;20027;-63
2022/01/26 01:36:47;;;;;;;0.08;0.08;;;;;;;;;;5069851;28;20107;-64
2022/01/26 01:39:13;;;;;;;0.00;0.00;;;;;;;;;;5070549;28;20060;-63
2022/01/26 01:41:39;;;;;;;0.00;0.00;;;;;;;;;;5070672;28;20062;-64
2022/01/26 01:44:05;;;;;;;0.00;0.00;;;;;;;;;;5070267;28;20077;-63
2022/01/26 01:46:31;;;;;;;0.00;0.00;;;;;;;;;;5068777;28;20020;-63
2022/01/26 01:48:56;;;;;;;0.75;0.75;;;;;;;;;;5071051;28;20419;-64
2022/01/26 01:51:27;;;;;;;0.00;0.00;;;;;;;;;;5070429;28;20043;-64
2022/01/26 01:53:53;;;;;;;0.70;0.70;;;;;;;;;;5070417;28;20020;-64
2022/01/26 01:56:22;;;;;;;0.00;0.00;;;;;;;;;;5069906;28;20545;-64
2022/01/26 01:58:47;;;;;;;;;;;;;;;;;;5070400;28;20469;-63
2022/01/26 02:01:13;;;;;;;0.00;0.00;;;;;;;;;;5070436;28;19939;-64
2022/01/26 02:03:38;;;;;;;0.00;0.00;;;;;;;;;;5070053;28;20035;-64
2022/01/26 02:06:03;;;;;;;0.00;0.00;;;;;;;;;;5070064;28;20048;-64
2022/01/26 02:08:28;;;;;;;0.00;0.00;;;;;;;;;;5069643;28;20048;-64
2022/01/26 02:10:53;;;;;;;0.00;0.00;;;;;;;;;;5070128;28;20032;-63
2022/01/26 02:13:24;;;;;;;0.00;0.00;;;;;;;;;;5068428;28;20032;-63
2022/01/26 02:53:56;;;;;;;0.00;0.00;;;;;;;;;;5068791;28;20082;-64
2022/01/26 03:03:53;;;;;;;0.00;0.00;;;;;;;;;;5068634;28;20139;-64
2022/01/26 03:06:26;;;;;;;0.15;0.15;;;;;;;;;;5069426;28;20452;-63
2022/01/26 03:08:58;;;;;;;0.00;0.00;;;;;;;;;;5067783;28;20067;-63
2022/01/26 03:11:27;;;;;;;0.00;0.00;;;;;;;;;;5067343;28;20095;-63
2022/01/26 03:14:01;;;;;;;0.00;0.00;;;;;;;;;;5066387;28;20031;-65
2022/01/26 03:16:42;;;;;;;0.17;0.17;;;;;;;;;;5069067;28;20087;-65
2022/01/26 03:35:14;;;;;;;8.30;2.90;;;;;;;;;;5068097;28;20035;-63
2022/01/26 03:37:49;;;;;;;11.50;10.98;;;;;;;;;;5067695;28;20111;-64
2022/01/26 03:40:15;;;;;;;0.00;0.00;;;;;;;;;;5068015;28;20021;-64
2022/01/26 03:42:40;;;;;;;0.00;0.00;;;;;;;;;;5066991;28;20024;-64
2022/01/26 03:45:06;;;;;;;0.00;0.00;;;;;;;;;;5067253;28;20162;-64
2022/01/26 03:47:31;;;;;;;0.00;0.00;;;;;;;;;;5067885;28;20111;-64
2022/01/26 03:49:56;;;;;;;1.55;0.57;;;;;;;;;;5068932;28;20032;-64
2022/01/26 03:52:21;;;;;;;0.20;0.20;;;;;;;;;;5068698;28;20029;-64
2022/01/26 03:54:47;;;;;;;0.00;0.00;;;;;;;;;;5067702;28;20086;-63
2022/01/26 03:57:12;;;;;;;0.00;0.00;;;;;;;;;;5068527;28;20024;-63
2022/01/26 03:59:37;;;;;;;0.00;0.00;;;;;;;;;;5068060;28;20020;-63
2022/01/26 04:02:03;;;;;;;3.20;2.92;;;;;;;;;;5066997;28;20032;-63
2022/01/26 04:04:33;;;;;;;3.83;3.25;;;;;;;;;;5067339;28;20060;-64
2022/01/26 04:07:00;;;;;;;0.30;0.30;;;;;;;;;;5067956;28;20465;-64
2022/01/26 04:09:25;;;;;;;1.58;1.50;;;;;;;;;;5066935;28;20041;-62
2022/01/26 04:11:51;;;;;;;1.17;1.17;;;;;;;;;;5068378;28;20075;-65
2022/01/26 04:14:20;;;;;;;0.00;0.00;;;;;;;;;;5067003;28;20092;-63
2022/01/26 04:16:45;;;;;;;0.03;0.03;;;;;;;;;;5066936;28;20021;-65
2022/01/26 04:19:11;;;;;;;0.00;0.00;;;;;;;;;;5068182;28;20029;-63
2022/01/26 04:26:56;;;;;;;0.45;0.38;;;;;;;;;;5067778;28;20594;-62
2022/01/26 04:29:32;;;;;;;3.40;1.98;;;;;;;;;;5068137;28;20017;-63
2022/01/26 04:31:58;;;;;;;0.00;0.00;;;;;;;;;;5067711;28;20059;-62
2022/01/26 04:34:24;;;;;;;0.73;0.73;;;;;;;;;;5066055;28;20783;-62
2022/01/26 04:39:29;;;;;;;4.32;4.05;;;;;;;;;;5067929;28;20095;-63
2022/01/26 04:42:00;;;;;;;0.65;0.65;;;;;;;;;;5071691;28;20025;-61
2022/01/26 04:44:31;;;;;;;0.00;0.00;;;;;;;;;;5069590;28;20153;-63
2022/01/26 04:46:56;;;;;;;1.00;1.00;;;;;;;;;;5068075;28;20028;-63
2022/01/26 04:49:22;;;;;;;0.00;0.00;;;;;;;;;;5068762;28;20099;-63
2022/01/26 04:51:47;;;;;;;2.38;2.28;;;;;;;;;;5070828;28;20570;-62
2022/01/26 04:54:13;;;;;;;0.90;0.90;;;;;;;;;;5070530;28;20081;-64
2022/01/26 04:56:38;;;;;;;4.10;2.55;;;;;;;;;;5070378;28;20094;-62
2022/01/26 04:59:04;;;;;;;2.42;0.90;;;;;;;;;;5071347;28;20067;-62
2022/01/26 05:01:29;;;;;;;0.00;0.00;;;;;;;;;;5070668;28;20025;-62
2022/01/26 05:03:54;;;;;;;0.10;0.10;;;;;;;;;;5067286;28;20096;-62
2022/01/26 05:06:19;;;;;;;1.10;1.08;;;;;;;;;;5069041;28;20021;-63
2022/01/26 05:08:45;;;;;;;0.00;0.00;;;;;;;;;;5070775;28;20119;-63
2022/01/26 05:11:14;;;;;;;3.63;0.43;;;;;;;;;;5070281;28;20031;-63
2022/01/26 05:13:39;;;;;;;0.52;0.52;;;;;;;;;;5067977;28;20085;-63
2022/01/26 05:16:06;;;;;;;0.22;0.22;;;;;;;;;;5071048;28;20457;-63
2022/01/26 05:18:33;;;;;;;0.00;0.00;;;;;;;;;;5068685;28;20388;-63
2022/01/26 05:20:58;;;;;;;0.00;0.00;;;;;;;;;;5068725;28;21025;-63
2022/01/26 05:23:23;;;;;;;0.52;0.32;;;;;;;;;;5066998;28;20046;-62
2022/01/26 05:25:48;;;;;;;0.88;0.88;;;;;;;;;;5069754;28;20020;-62
2022/01/26 05:28:14;;;;;;;0.10;0.10;;;;;;;;;;5070899;28;20029;-62
2022/01/26 05:30:39;;;;;;;0.08;0.08;;;;;;;;;;5070195;28;20028;-62
2022/01/26 05:33:04;;;;;;;0.45;0.45;;;;;;;;;;5069908;28;20044;-62
2022/01/26 05:35:30;;;;;;;0.10;0.10;;;;;;;;;;5069090;28;20024;-62
2022/01/26 05:37:55;;;;;;;0.00;0.00;;;;;;;;;;5070344;28;20028;-63
2022/01/26 05:40:20;;;;;;;0.70;0.70;;;;;;;;;;5070368;28;20033;-62
2022/01/26 05:42:46;;;;;;;1.20;1.20;;;;;;;;;;5067265;28;20640;-63
2022/01/26 05:45:32;;;;;;;0.15;0.10;;;;;;;;;;5066926;28;20532;-63
2022/01/26 05:47:57;;;;;;;2.10;0.47;;;;;;;;;;5063112;28;20032;-62
2022/01/26 05:50:22;;;;;;;0.20;0.20;;;;;;;;;;5069586;28;20460;-62
2022/01/26 05:52:48;;;;;;;0.75;0.75;;;;;;;;;;5068089;28;20496;-62
2022/01/26 05:55:13;;;;;;;0.00;0.00;;;;;;;;;;5068910;28;20047;-63
2022/01/26 05:57:39;;;;;;;0.00;0.00;;;;;;;;;;5068601;28;20347;-63
2022/01/26 06:00:04;;;;;;;0.63;0.63;;;;;;;;;;5070072;28;20028;-63
2022/01/26 06:02:31;;;;;;;0.00;0.00;;;;;;;;;;5068208;28;20032;-61
2022/01/26 06:04:56;;;;;;;0.15;0.15;;;;;;;;;;5066292;28;20424;-62
2022/01/26 06:07:21;;;;;;;0.00;0.00;;;;;;;;;;5068421;28;20080;-63
2022/01/26 06:09:47;;;;;;;0.25;0.25;;;;;;;;;;5068377;28;20111;-62
2022/01/26 06:12:12;;;;;;;0.10;0.10;;;;;;;;;;5069531;28;20024;-62
2022/01/26 06:14:37;;;;;;;0.00;0.00;;;;;;;;;;5068070;28;20024;-63
2022/01/26 06:17:02;;;;;;;0.00;0.00;;;;;;;;;;5069827;28;20055;-60
2022/01/26 06:19:27;;;;;;;1.08;0.93;;;;;;;;;;5069057;28;20063;-62
2022/01/26 06:21:53;;;;;;;0.00;0.00;;;;;;;;;;5068486;28;20024;-61
2022/01/26 06:24:18;;;;;;;0.00;0.00;;;;;;;;;;5068512;28;20016;-61
2022/01/26 06:26:43;;;;;;;0.00;0.00;;;;;;;;;;5067779;28;20056;-61
2022/01/26 06:29:08;;;;;;;0.65;0.65;;;;;;;;;;5069848;28;20094;-61
2022/01/26 06:31:34;;;;;;;0.90;0.90;;;;;;;;;;5068449;28;20032;-62
2022/01/26 06:34:02;;;;;;;0.63;0.63;;;;;;;;;;5067685;28;20021;-66
2022/01/26 06:36:27;;;;;;;0.00;0.00;;;;;;;;;;5068435;28;20146;-65
2022/01/26 06:38:53;;;;;;;0.00;0.00;;;;;;;;;;5068566;28;20452;-65
2022/01/26 06:41:23;;;;;;;0.00;0.00;;;;;;;;;;5069314;28;20032;-66
2022/01/26 06:43:53;;;;;;;0.08;0.08;;;;;;;;;;5066628;28;20697;-66
2022/01/26 06:46:29;;;;;;;0.00;0.00;;;;;;;;;;5065578;28;20116;-69
2022/01/26 06:51:22;;;;;;;0.00;0.00;;;;;;;;;;5069126;28;20492;-67
2022/01/26 06:53:47;;;;;;;0.43;0.43;;;;;;;;;;5067874;28;20036;-68
2022/01/26 06:56:13;;;;;;;0.00;0.00;;;;;;;;;;5068432;28;20024;-69
2022/01/26 06:58:38;;;;;;;0.00;0.00;;;;;;;;;;5066321;28;20462;-69
2022/01/26 07:01:03;;;;;;;3.00;2.28;;;;;;;;;;5068198;28;20040;-69
2022/01/26 07:03:28;;;;;;;0.00;0.00;;;;;;;;;;5066852;28;20031;-70
2022/01/26 07:05:54;;;;;;;0.00;0.00;;;;;;;;;;5067354;28;20028;-69
2022/01/26 07:08:19;;;;;;;0.00;0.00;;;;;;;;;;5068745;28;20477;-69
2022/01/26 07:10:47;;;;;;;0.00;0.00;;;;;;;;;;5066994;28;20013;-68
2022/01/26 07:13:12;;;;;;;0.00;0.00;;;;;;;;;;5067549;28;20020;-69
2022/01/26 07:21:23;;;;;;;0.00;0.00;;;;;;;;;;5068802;28;20440;-69
2022/01/26 07:23:48;;;;;;;0.00;0.00;;;;;;;;;;5067479;28;20021;-68
2022/01/26 07:26:14;;;;;;;0.00;0.00;;;;;;;;;;5068957;28;20055;-68
2022/01/26 07:28:40;;;;;;;0.00;0.00;;;;;;;;;;5067408;28;20028;-66
2022/01/26 07:31:06;;;;;;;0.00;0.00;;;;;;;;;;5066957;28;20017;-67
2022/01/26 07:33:32;;;;;;;0.00;0.00;;;;;;;;;;5064607;28;20032;-67
2022/01/26 07:35:57;;;;;;;0.00;0.00;;;;;;;;;;5068731;28;20020;-67
2022/01/26 07:38:23;;;;;;;0.00;0.00;;;;;;;;;;5068847;28;20115;-67
2022/01/26 07:40:48;;;;;;;0.15;0.15;;;;;;;;;;5067777;28;20013;-66
2022/01/26 07:43:13;;;;;;;0.00;0.00;;;;;;;;;;5066178;28;20029;-67
2022/01/26 07:45:39;;;;;;;1.00;0.90;;;;;;;;;;5067888;28;20115;-67
2022/01/26 07:48:04;;;;;;;1.45;1.45;;;;;;;;;;5068114;28;20033;-68
2022/01/26 07:50:29;;;;;;;0.10;0.10;;;;;;;;;;5068280;28;20074;-67
2022/01/26 07:52:55;;;;;;;0.75;0.75;;;;;;;;;;5068285;28;20036;-67
2022/01/26 07:55:22;;;;;;;2.45;2.35;;;;;;;;;;5068159;28;20023;-66
2022/01/26 07:57:49;;;;;;;0.10;0.10;;;;;;;;;;5068082;28;20176;-67
2022/01/26 08:00:15;;;;;;;0.00;0.00;;;;;;;;;;5067898;28;20025;-68
2022/01/26 08:02:41;;;;;;;9.15;8.68;;;;;;;;;;5066921;28;20526;-68
2022/01/26 08:05:07;;;;;;;0.10;0.10;;;;;;;;;;5067983;28;20077;-67
2022/01/26 08:07:32;;;;;;;0.00;0.00;;;;;;;;;;5067763;28;20060;-67
2022/01/26 08:09:57;;;;;;;2.70;2.60;;;;;;;;;;5068454;28;20393;-67
2022/01/26 08:12:23;;;;;;;0.98;0.93;;;;;;;;;;5068300;28;20052;-68
2022/01/26 08:14:48;;;;;;;1.27;1.15;;;;;;;;;;5067828;28;20047;-67
2022/01/26 08:17:16;;;;;;;0.65;0.65;;;;;;;;;;5072262;28;20028;-66
2022/01/26 08:19:41;;;;;;;1.08;1.08;;;;;;;;;;5070583;28;20221;-67
2022/01/26 08:22:07;;;;;;;0.00;0.00;;;;;;;;;;5072399;28;20111;-65
2022/01/26 08:24:32;;;;;;;0.17;0.17;;;;;;;;;;5070242;28;20037;-66
2022/01/26 08:27:02;;;;;;;0.00;0.00;;;;;;;;;;5071235;28;20369;-66
2022/01/26 08:29:29;;;;;;;0.00;0.00;;;;;;;;;;5071392;28;20100;-67
2022/01/26 08:31:54;;;;;;;1.58;0.75;;;;;;;;;;5070028;28;20028;-67
2022/01/26 08:34:20;;;;;;;0.00;0.00;;;;;;;;;;5071151;28;20025;-69
2022/01/26 08:36:45;;;;;;;1.17;0.08;;;;;;;;;;5071314;28;20028;-67
2022/01/26 08:39:11;;;;;;;0.65;0.65;;;;;;;;;;5072358;28;20063;-70
2022/01/26 08:41:36;;;;;;;0.17;0.17;;;;;;;;;;5071406;28;20125;-67
2022/01/26 08:44:02;;;;;;;3.80;0.65;;;;;;;;;;5070709;28;20075;-67
2022/01/26 08:46:27;;;;;;;0.28;0.28;;;;;;;;;;5071096;28;20089;-67
2022/01/26 08:48:52;;;;;;;1.88;1.77;;;;;;;;;;5068654;28;20104;-66
2022/01/26 08:51:18;;;;;;;0.25;0.25;;;;;;;;;;5067563;28;20028;-65
2022/01/26 08:53:44;;;;;;;0.10;0.10;;;;;;;;;;5070563;28;20311;-66
2022/01/26 08:56:09;;;;;;;0.00;0.00;;;;;;;;;;5070560;28;20404;-69
2022/01/26 08:58:34;;;;;;;0.10;0.10;;;;;;;;;;5070760;28;20070;-67
2022/01/26 09:00:59;;;;;;;0.00;0.00;;;;;;;;;;5071592;28;20307;-66
2022/01/26 09:03:25;;;;;;;0.00;0.00;;;;;;;;;;5070558;28;20039;-66
2022/01/26 09:05:50;;;;;;;0.00;0.00;;;;;;;;;;5071084;28;20510;-68
2022/01/26 09:08:17;;;;;;;0.00;0.00;;;;;;;;;;5069668;28;20106;-67
2022/01/26 09:10:42;;;;;;;0.80;0.80;;;;;;;;;;5070177;28;20024;-68
2022/01/26 09:13:08;;;;;;;0.00;0.00;;;;;;;;;;5070247;28;20023;-67
2022/01/26 09:15:33;;;;;;;1.02;1.02;;;;;;;;;;5070519;28;20032;-67
2022/01/26 09:18:02;;;;;;;0.00;0.00;;;;;;;;;;5068320;28;20032;-67
2022/01/26 09:20:27;;;;;;;1.65;0.65;;;;;;;;;;5069176;28;20025;-69
2022/01/26 09:22:53;;;;;;;0.00;0.00;;;;;;;;;;5072935;28;20117;-67
2022/01/26 09:25:18;;;;;;;0.00;0.00;;;;;;;;;;5070881;28;20099;-68
2022/01/26 09:27:43;;;;;;;0.00;0.00;;;;;;;;;;5067621;28;20031;-69
2022/01/26 09:30:09;;;;;;;0.70;0.70;;;;;;;;;;5068092;28;20066;-67
2022/01/26 09:32:35;;;;;;;0.10;0.10;;;;;;;;;;5065669;28;20017;-67
2022/01/26 09:35:00;;;;;;;0.00;0.00;;;;;;;;;;5065683;28;20067;-68
2022/01/26 09:37:27;;;;;;;0.05;0.05;;;;;;;;;;5069161;28;20032;-67
2022/01/26 09:39:54;;;;;;;0.55;0.55;;;;;;;;;;5069217;28;20077;-66
2022/01/26 09:42:19;;;;;;;0.40;0.40;;;;;;;;;;5068733;28;20527;-68
2022/01/26 09:44:45;;;;;;;0.00;0.00;;;;;;;;;;5068944;28;20044;-67
2022/01/26 09:47:23;;;;;;;0.00;0.00;;;;;;;;;;5068372;28;20097;-67
2022/01/26 09:49:50;;;;;;;0.00;0.00;;;;;;;;;;5070073;28;20465;-68
2022/01/26 09:52:21;;;;;;;0.20;0.20;;;;;;;;;;5069027;28;20017;-67
2022/01/26 09:54:47;;;;;;;0.00;0.00;;;;;;;;;;5065211;28;20380;-68
2022/01/26 09:57:15;;;;;;;0.00;0.00;;;;;;;;;;5067005;28;20029;-68
2022/01/26 09:59:43;;;;;;;0.00;0.00;;;;;;;;;;5062826;28;20481;-67
2022/01/26 10:02:19;;;;;;;0.52;0.52;;;;;;;;;;5066194;28;20027;-68
2022/01/26 10:04:44;;;;;;;0.43;0.43;;;;;;;;;;5064091;28;20024;-67
2022/01/26 10:17:38;;;;;;;1.92;1.52;;;;;;;;;;5065751;28;20035;-68
2022/01/26 10:20:05;;;;;;;0.13;0.10;;;;;;;;;;5066616;28;20017;-67
2022/01/26 10:22:34;;;;;;;0.00;0.00;;;;;;;;;;5062697;28;20059;-66
2022/01/26 10:25:13;;;;;;;0.00;0.00;;;;;;;;;;5060283;28;20658;-67
2022/01/26 10:27:40;;;;;;;0.00;0.00;;;;;;;;;;5066531;28;20385;-68
2022/01/26 10:30:06;;;;;;;1.30;1.30;;;;;;;;;;5066490;28;20078;-68
2022/01/26 10:32:35;;;;;;;0.32;0.32;;;;;;;;;;5065680;28;20056;-67
2022/01/26 10:35:01;;;;;;;0.00;0.00;;;;;;;;;;5062779;28;20386;-67
2022/01/26 10:37:27;;;;;;;0.38;0.38;;;;;;;;;;5064377;28;20094;-67
2022/01/26 10:39:55;;;;;;;0.75;0.30;;;;;;;;;;5063790;28;20032;-67
2022/01/26 10:42:22;;;;;;;0.00;0.00;;;;;;;;;;5067558;28;20029;-67
2022/01/26 10:44:54;;;;;;;0.00;0.00;;;;;;;;;;5066213;28;20025;-67
2022/01/26 10:47:46;;;;;;;0.00;0.00;;;;;;;;;;5063205;28;20473;-68
2022/01/26 10:53:05;;;;;;;0.00;0.00;;;;;;;;;;5062586;28;20031;-67
2022/01/26 10:55:31;;;;;;;0.00;0.00;;;;;;;;;;5062970;28;20047;-67
2022/01/26 10:57:56;;;;;;;0.00;0.00;;;;;;;;;;5065021;28;20035;-67
2022/01/26 11:00:21;;;;;;;1.60;1.55;;;;;;;;;;5067222;28;20032;-67
2022/01/26 11:02:48;;;;;;;0.00;0.00;;;;;;;;;;5066101;28;20024;-67
2022/01/26 11:05:13;;;;;;;0.03;0.03;;;;;;;;;;5066399;28;20139;-68
2022/01/26 11:07:42;;;;;;;2.92;2.83;;;;;;;;;;5064781;28;20477;-68
2022/01/26 11:10:08;;;;;;;0.00;0.00;;;;;;;;;;5064487;28;20354;-68
2022/01/26 11:12:34;;;;;;;0.00;0.00;;;;;;;;;;5061613;28;20457;-67
2022/01/26 11:15:06;;;;;;;0.20;0.20;;;;;;;;;;5061375;28;20020;-67
2022/01/26 11:17:35;;;;;;;1.25;0.63;;;;;;;;;;5065711;28;20025;-68
2022/01/26 11:20:03;;;;;;;0.52;0.52;;;;;;;;;;5063914;28;20385;-67
2022/01/26 11:22:31;;;;;;;0.00;0.00;;;;;;;;;;5064056;28;20040;-67
2022/01/26 11:25:10;;;;;;;0.00;0.00;;;;;;;;;;5063666;28;20025;-68
2022/01/26 11:27:36;;;;;;;0.00;0.00;;;;;;;;;;5062632;28;20069;-67
2022/01/26 11:30:14;;;;;;;0.00;0.00;;;;;;;;;;5067020;28;20016;-68
2022/01/26 11:32:48;;;;;;;0.00;0.00;;;;;;;;;;5064768;28;20021;-68
2022/01/26 11:35:13;;;;;;;0.00;0.00;;;;;;;;;;5064002;28;20028;-65
2022/01/26 11:37:46;;;;;;;0.08;0.08;;;;;;;;;;5063698;28;20559;-65
2022/01/26 11:46:05;;;;;;;0.00;0.00;;;;;;;;;;5063824;28;20507;-64
2022/01/26 11:48:30;;;;;;;0.00;0.00;;;;;;;;;;5064444;28;20079;-64
2022/01/26 11:51:00;;;;;;;0.35;0.35;;;;;;;;;;5068958;28;20029;-63
2022/01/26 11:53:26;;;;;;;0.57;0.57;;;;;;;;;;5068424;28;20481;-65
2022/01/26 11:55:59;;;;;;;3.72;0.43;;;;;;;;;;5067157;28;20021;-64
2022/01/26 11:58:29;;;;;;;1.35;1.35;;;;;;;;;;5067455;28;20052;-65
2022/01/26 12:01:15;;;;;;;0.00;0.00;;;;;;;;;;5064920;28;20060;-64
2022/01/26 12:03:55;;;;;;;0.00;0.00;;;;;;;;;;5068120;28;20020;-63
2022/01/26 12:06:27;;;;;;;8.80;4.78;;;;;;;;;;5068998;28;20381;-64
2022/01/26 12:08:54;;;;;;;0.00;0.00;;;;;;;;;;5068799;28;20117;-64
2022/01/26 12:11:20;;;;;;;0.82;0.43;;;;;;;;;;5066660;28;20020;-64
2022/01/26 12:13:50;;;;;;;0.00;0.00;;;;;;;;;;5065235;28;20044;-65
2022/01/26 12:16:19;;;;;;;0.00;0.00;;;;;;;;;;5066217;28;20116;-64
2022/01/26 12:36:17;;;;;;;;;;;;;;;;;;5066672;28;20485;-65
2022/01/26 12:38:20;;;;;;;0.00;0.00;;;;;;;;;;5059017;28;19913;-63
2022/01/26 12:43:32;;;;;;;0.00;0.00;;;;;;;;;;5063125;28;20032;-63
2022/01/26 12:45:57;;;;;;;0.10;0.10;;;;;;;;;;5066632;28;20012;-63
2022/01/26 12:48:23;;;;;;;1.45;1.45;;;;;;;;;;5065697;28;20112;-63
2022/01/26 12:50:48;;;;;;;2.28;2.13;;;;;;;;;;5065563;28;20020;-64
2022/01/26 12:53:13;;;;;;;0.00;0.00;;;;;;;;;;5065002;28;20358;-64
2022/01/26 12:55:39;;;;;;;0.00;0.00;;;;;;;;;;5063885;28;20029;-63
2022/01/26 12:58:05;;;;;;;0.00;0.00;;;;;;;;;;5069411;28;20054;-64
2022/01/26 13:00:38;;;;;;;0.00;0.00;;;;;;;;;;5067856;28;20146;-63
2022/01/26 13:03:14;;;;;;;0.60;0.60;;;;;;;;;;5067655;28;20556;-64
2022/01/26 13:05:39;;;;;;;0.85;0.85;;;;;;;;;;5067241;28;20016;-63
2022/01/26 13:08:05;;;;;;;0.00;0.00;;;;;;;;;;5067177;28;20549;-65
2022/01/26 13:10:31;;;;;;;0.00;0.00;;;;;;;;;;5065111;28;20409;-67
2022/01/26 13:13:08;;;;;;;0.00;0.00;;;;;;;;;;5066118;28;20051;-69
2022/01/26 13:15:42;;;;;;;0.13;0.13;;;;;;;;;;5064608;28;20032;-68
2022/01/26 13:18:17;;;;;;;0.15;0.15;;;;;;;;;;5069026;28;20432;-67
2022/01/26 13:21:36;;;;;;;0.63;0.63;;;;;;;;;;5067443;28;20112;-68
2022/01/26 13:23:46;;;;;;;0.00;0.00;;;;;;;;;;5052510;28;20036;-68
2022/01/26 13:26:23;;;;;;;1.17;1.17;;;;;;;;;;5064999;28;20028;-69
2022/01/26 13:29:07;;;;;;;0.00;0.00;;;;;;;;;;5066058;28;20031;-68
2022/01/26 13:34:56;;;;;;;0.00;0.00;;;;;;;;;;5037158;28;20139;-68
2022/01/26 13:50:13;;;;;;;1.13;0.65;;;;;;;;;;5065629;28;20028;-65
2022/01/26 13:52:52;;;;;;;0.00;0.00;;;;;;;;;;5067698;28;20400;-64
2022/01/26 13:55:57;;;;;;;0.43;0.43;;;;;;;;;;5069128;28;20032;-64
2022/01/26 14:00:53;;;;;;;0.00;0.00;;;;;;;;;;5063063;28;20036;-64
2022/01/26 14:03:19;;;;;;;0.85;0.85;;;;;;;;;;5066015;28;20070;-64
2022/01/26 14:05:44;;;;;;;0.88;0.88;;;;;;;;;;5066892;28;20036;-64
2022/01/26 14:08:09;;;;;;;0.85;0.68;;;;;;;;;;5068053;28;20123;-65
2022/01/26 14:10:36;;;;;;;2.20;0.80;;;;;;;;;;5068922;28;20103;-66
2022/01/26 14:13:01;;;;;;;4.38;3.42;;;;;;;;;;5068463;28;20028;-65
2022/01/26 14:15:39;;;;;;;1.02;0.90;;;;;;;;;;5068458;28;20013;-65
2022/01/26 14:20:54;;;;;;;1.45;1.45;;;;;;;;;;5067444;28;20052;-65
2022/01/26 14:25:51;;;;;;;6.22;4.35;;;;;;;;;;5067421;28;20031;-66
2022/01/26 14:28:20;;;;;;;2.08;1.45;;;;;;;;;;5067838;28;20059;-67
2022/01/26 14:31:05;;;;;;;15.60;7.57;;;;;;;;;;5069107;28;20029;-66
2022/01/26 14:36:25;;;;;;;3.10;2.90;;;;;;;;;;5067805;28;20544;-65
2022/01/26 15:08:38;;;;;;;1.98;1.88;;;;;;;;;;5070129;28;20032;-67
2022/01/26 15:30:20;;;;;;;0.03;0.03;;;;;;;;;;5069243;28;20028;-65
2022/01/26 15:35:40;;;;;;;0.00;0.00;;;;;;;;;;5067291;28;20024;-65
2022/01/26 15:50:59;;;;;;;1.38;1.35;;;;;;;;;;5068019;28;20424;-67
2022/01/26 15:57:22;;;;;;;0.82;0.77;;;;;;;;;;5067841;28;20013;-67
2022/01/26 15:59:19;;;;;;;0.00;0.00;;;;;;;;;;5040196;28;20040;-66
2022/01/26 16:04:48;;;;;;;0.00;0.00;;;;;;;;;;5068160;28;20118;-67
2022/01/26 16:07:25;;;;;;;0.00;0.00;;;;;;;;;;5068255;28;20060;-65
2022/01/26 16:26:41;;;;;;;3.65;1.88;;;;;;;;;;5068473;28;20035;-67
2022/01/26 17:12:58;;;;;;;0.00;0.00;;;;;;;;;;5070232;28;20063;-67
2022/01/26 17:26:37;;;;;;;0.00;0.00;;;;;;;;;;5070805;28;20094;-67
2022/01/26 17:47:31;;;;;;;0.35;0.35;;;;;;;;;;5068926;28;20032;-67
2022/01/26 18:17:31;;;;;;;0.00;0.00;;;;;;;;;;5044535;28;20030;-65
2022/01/26 18:33:14;;;;;;;0.10;0.10;;;;;;;;;;5074742;28;20032;-66
2022/01/26 18:51:39;;;;;;;0.17;0.17;;;;;;;;;;5074668;28;20025;-64
2022/01/26 18:54:05;;;;;;;0.00;0.00;;;;;;;;;;5074232;28;20020;-64
2022/01/26 18:56:31;;;;;;;0.00;0.00;;;;;;;;;;5074090;28;20017;-64
2022/01/26 18:58:56;;;;;;;0.00;0.00;;;;;;;;;;5071692;28;20032;-64
2022/01/26 19:01:22;;;;;;;0.00;0.00;;;;;;;;;;5073442;28;20016;-63
2022/01/26 19:03:47;;;;;;;0.00;0.00;;;;;;;;;;5074667;28;20445;-65
2022/01/26 19:06:12;;;;;;;0.00;0.00;;;;;;;;;;5072442;28;20024;-64
2022/01/26 19:08:40;;;;;;;0.00;0.00;;;;;;;;;;5073488;28;20491;-64
2022/01/26 19:11:08;;;;;;;0.80;0.80;;;;;;;;;;5072067;28;20112;-65
2022/01/26 19:13:33;;;;;;;0.00;0.00;;;;;;;;;;5073207;28;20032;-67
2022/01/26 19:16:05;;;;;;;2.90;0.75;;;;;;;;;;5073575;28;20017;-66
2022/01/26 19:21:48;;;;;;;2.30;1.98;;;;;;;;;;5044946;28;20107;-68
2022/01/26 19:27:13;;;;;;;0.38;0.38;;;;;;;;;;5035318;28;20071;-67
2022/01/26 19:32:34;;;;;;;2.13;2.03;;;;;;;;;;5071952;28;20025;-67
2022/01/26 19:53:08;;;;;;;2.42;2.28;;;;;;;;;;5070130;28;20112;-69
2022/01/26 19:55:34;;;;;;;2.85;2.63;;;;;;;;;;5071930;28;20453;-68
2022/01/26 19:58:01;;;;;;;1.08;1.08;;;;;;;;;;5069241;28;20031;-65
2022/01/26 20:00:26;;;;;;;5.78;4.15;;;;;;;;;;5067616;28;20031;-64
2022/01/26 20:02:52;;;;;;;0.52;0.52;;;;;;;;;;5067524;28;20024;-65
2022/01/26 20:05:18;;;;;;;1.65;1.55;;;;;;;;;;5068395;28;20029;-65
2022/01/26 20:07:45;;;;;;;1.75;1.65;;;;;;;;;;5068539;28;20098;-64
2022/01/26 20:10:13;;;;;;;2.58;2.45;;;;;;;;;;5068817;28;20024;-64
2022/01/26 20:12:48;;;;;;;8.05;4.00;;;;;;;;;;5072353;28;20020;-65
2022/01/26 20:15:14;;;;;;;2.47;2.38;;;;;;;;;;5072872;28;20086;-66
2022/01/26 20:17:43;;;;;;;2.45;2.25;;;;;;;;;;5072280;28;20580;-65
2022/01/26 20:20:08;;;;;;;5.18;1.27;;;;;;;;;;5071781;28;20028;-65
2022/01/26 20:22:34;;;;;;;1.08;0.85;;;;;;;;;;5072679;28;20036;-65
2022/01/26 20:24:59;;;;;;;2.53;1.27;;;;;;;;;;5069728;28;20485;-65
2022/01/26 20:27:24;;;;;;;1.88;0.80;;;;;;;;;;5069792;28;20388;-66
2022/01/26 20:29:59;;;;;;;0.00;0.00;;;;;;;;;;5070635;28;20059;-65
2022/01/26 20:32:25;;;;;;;0.00;0.00;;;;;;;;;;5071208;28;20021;-65
2022/01/26 20:34:50;;;;;;;0.00;0.00;;;;;;;;;;5069270;28;20031;-65
2022/01/26 20:37:16;;;;;;;0.75;0.75;;;;;;;;;;5070953;28;20124;-64
2022/01/26 20:39:41;;;;;;;9.20;3.13;;;;;;;;;;5070945;28;20024;-65
2022/01/26 20:42:06;;;;;;;0.00;0.00;;;;;;;;;;5068455;28;20029;-64
2022/01/26 20:44:32;;;;;;;6.65;3.83;;;;;;;;;;5069934;28;20495;-65
2022/01/26 20:46:57;;;;;;;1.80;1.70;;;;;;;;;;5065970;28;20017;-64
2022/01/26 20:49:22;;;;;;;1.40;1.23;;;;;;;;;;5067645;28;20024;-65
2022/01/26 20:51:48;;;;;;;0.57;0.43;;;;;;;;;;5070548;28;20020;-65
2022/01/26 20:54:13;;;;;;;2.35;2.10;;;;;;;;;;5069854;28;20090;-64
2022/01/26 20:56:39;;;;;;;0.00;0.00;;;;;;;;;;5068885;28;20383;-65
2022/01/26 20:59:05;;;;;;;3.50;3.25;;;;;;;;;;5070200;28;20558;-64
2022/01/26 21:01:30;;;;;;;2.97;2.78;;;;;;;;;;5070384;28;20036;-65
2022/01/26 21:03:55;;;;;;;0.30;0.30;;;;;;;;;;5070364;28;20215;-64
2022/01/26 21:06:20;;;;;;;0.00;0.00;;;;;;;;;;5069573;28;20439;-64
2022/01/26 21:08:46;;;;;;;2.75;2.65;;;;;;;;;;5070488;28;20047;-65
2022/01/26 21:11:11;;;;;;;2.13;1.35;;;;;;;;;;5070070;28;20454;-65
2022/01/26 21:13:37;;;;;;;1.98;1.88;;;;;;;;;;5071316;28;20456;-65
2022/01/26 21:16:03;;;;;;;6.75;3.78;;;;;;;;;;5071398;28;20039;-64
2022/01/26 21:18:31;;;;;;;0.85;0.82;;;;;;;;;;5068122;28;20028;-65
2022/01/26 21:20:56;;;;;;;1.58;1.58;;;;;;;;;;5069053;28;20081;-66
2022/01/26 21:23:21;;;;;;;0.00;0.00;;;;;;;;;;5070772;28;20024;-65
2022/01/26 21:25:47;;;;;;;6.78;3.13;;;;;;;;;;5071397;28;20024;-65
2022/01/26 21:28:12;;;;;;;4.18;1.55;;;;;;;;;;5070715;28;20021;-65
2022/01/26 21:30:37;;;;;;;0.88;0.77;;;;;;;;;;5069232;28;20521;-64
2022/01/26 21:33:03;;;;;;;3.55;2.03;;;;;;;;;;5071048;28;20078;-65
2022/01/26 21:35:28;;;;;;;0.00;0.00;;;;;;;;;;5071224;28;20027;-66
2022/01/26 21:37:53;;;;;;;1.73;1.63;;;;;;;;;;5070658;28;20036;-65